Time;durP1;ratioP1;P1;durP2;ratioP2;P2;SDS_P1;SDS_P2;PMS_P1;PMS_P2;Temp;Humidity;BMP_temperature;BMP_pressure;BME280_temperature;BME280_humidity;BME280_pressure;Samples;Min_cycle;Max_cycle;Signal;HPM_P1;HPM_P2
2022/05/26 00:00:10;;;;;;;45.47;25.40;;;;;;;20.35;68.44;94898.91;4175746;28;20099;-55
2022/05/26 00:02:12;;;;;;;42.05;26.02;;;;;;;20.42;68.16;94897.00;4176937;28;20200;-53
2022/05/26 00:04:13;;;;;;;39.97;26.20;;;;;;;20.38;68.02;94903.78;4177091;28;20068;-52
2022/05/26 00:06:21;;;;;;;41.00;27.00;;;;;;;20.13;68.65;94894.94;4177129;28;20140;-53
2022/05/26 00:08:22;;;;;;;40.72;27.42;;;;;;;19.93;69.58;94889.72;4176787;28;20049;-54
2022/05/26 00:10:24;;;;;;;38.50;26.15;;;;;;;19.99;69.47;94894.19;4172842;28;20052;-56
2022/05/26 00:12:26;;;;;;;38.53;25.98;;;;;;;20.00;69.17;94880.69;4177062;28;20060;-55
2022/05/26 00:14:28;;;;;;;38.80;25.45;;;;;;;20.03;69.19;94892.75;4176397;28;20053;-55
2022/05/26 00:16:29;;;;;;;42.25;26.05;;;;;;;20.12;68.88;94893.31;4176011;28;20056;-54
2022/05/26 00:18:31;;;;;;;41.75;25.50;;;;;;;20.18;68.54;94890.63;4176696;28;20477;-53
2022/05/26 00:20:33;;;;;;;37.45;26.58;;;;;;;20.29;68.24;94890.97;4160632;28;20111;-57
2022/05/26 00:22:35;;;;;;;40.95;26.13;;;;;;;20.39;67.69;94899.25;4160328;28;20085;-54
2022/05/26 00:24:37;;;;;;;42.13;25.07;;;;;;;20.46;67.65;94892.88;4159512;28;20061;-56
2022/05/26 00:26:39;;;;;;;37.47;25.75;;;;;;;20.53;67.41;94886.69;4168713;28;20548;-54
2022/05/26 00:28:40;;;;;;;39.45;25.50;;;;;;;20.57;67.29;94877.25;4176416;28;20491;-52
2022/05/26 00:30:42;;;;;;;43.45;25.77;;;;;;;20.60;67.13;94868.84;4167064;28;20486;-54
2022/05/26 00:32:44;;;;;;;36.75;25.38;;;;;;;20.63;66.88;94873.75;4176514;28;20548;-54
2022/05/26 00:34:45;;;;;;;40.17;24.83;;;;;;;20.65;66.74;94872.50;4176357;28;20052;-52
2022/05/26 00:36:47;;;;;;;44.83;25.90;;;;;;;20.68;66.44;94865.94;4176675;28;20052;-53
2022/05/26 00:38:49;;;;;;;44.90;26.17;;;;;;;20.68;66.63;94865.13;4176087;28;20536;-53
2022/05/26 00:40:50;;;;;;;35.42;24.55;;;;;;;20.71;66.58;94876.13;4175971;28;20411;-54
2022/05/26 00:42:52;;;;;;;39.88;25.00;;;;;;;20.74;66.49;94875.72;4176586;28;20151;-54
2022/05/26 00:44:54;;;;;;;36.25;25.50;;;;;;;20.79;66.15;94878.53;4174962;28;20060;-53
2022/05/26 00:47:10;;;;;;;37.15;25.15;;;;;;;20.85;65.91;94880.31;4164892;28;20456;-55
2022/05/26 00:49:40;;;;;;;40.90;25.35;;;;;;;20.90;66.07;94876.19;4175152;28;20088;-55
2022/05/26 00:51:43;;;;;;;38.35;25.55;;;;;;;20.82;66.00;94874.59;4175814;28;20052;-53
2022/05/26 00:53:52;;;;;;;41.00;26.77;;;;;;;20.75;65.98;94887.16;4174584;28;20061;-54
2022/05/26 00:55:57;;;;;;;43.05;26.35;;;;;;;20.02;68.66;94885.78;4176109;28;20056;-54
2022/05/26 00:58:06;;;;;;;40.03;26.52;;;;;;;19.68;69.98;94874.50;4169026;28;20134;-55
2022/05/26 01:00:11;;;;;;;39.40;28.23;;;;;;;19.75;70.10;94875.28;4170706;28;20045;-56
2022/05/26 01:02:14;;;;;;;44.60;26.73;;;;;;;19.89;69.68;94884.00;4174760;28;20134;-52
2022/05/26 01:04:18;;;;;;;41.22;27.10;;;;;;;20.03;69.03;94880.25;4174418;28;20078;-53
2022/05/26 01:06:29;;;;;;;44.83;26.88;;;;;;;20.13;68.49;94884.28;4176173;28;20371;-53
2022/05/26 01:08:50;;;;;;;41.10;27.52;;;;;;;20.21;68.48;94892.03;4175992;28;20372;-51
2022/05/26 01:10:52;;;;;;;40.15;26.40;;;;;;;20.16;68.16;94894.53;4175668;28;20056;-54
2022/05/26 01:12:55;;;;;;;43.13;27.30;;;;;;;20.09;68.14;94897.22;4176007;28;20049;-55
2022/05/26 01:15:03;;;;;;;41.03;27.58;;;;;;;20.02;68.50;94896.41;4174799;28;20623;-54
2022/05/26 01:17:16;;;;;;;39.92;27.23;;;;;;;19.96;68.66;94898.09;4174394;28;20052;-53
2022/05/26 01:20:05;;;;;;;46.35;27.58;;;;;;;19.89;68.74;94905.28;4170065;28;20425;-54
2022/05/26 01:22:12;;;;;;;44.85;26.77;;;;;;;19.89;68.76;94901.81;4158106;28;20621;-52
2022/05/26 01:24:52;;;;;;;41.70;27.40;;;;;;;19.84;69.14;94899.78;4159890;28;20480;-53
2022/05/26 01:27:08;;;;;;;42.33;26.20;;;;;;;19.88;69.02;94906.31;4159463;28;20121;-53
2022/05/26 01:29:41;;;;;;;39.78;26.33;;;;;;;19.94;68.57;94908.13;4159465;28;20521;-53
2022/05/26 01:31:52;;;;;;;36.78;25.38;;;;;;;20.02;68.44;94905.22;4159486;28;20045;-52
2022/05/26 01:34:22;;;;;;;39.00;26.63;;;;;;;20.10;67.96;94908.66;4166221;28;20282;-54
2022/05/26 01:36:31;;;;;;;40.53;25.60;;;;;;;20.16;67.65;94908.63;4161530;28;20130;-53
2022/05/26 01:39:00;;;;;;;37.30;25.10;;;;;;;20.23;67.56;94913.91;4175943;28;20049;-53
2022/05/26 01:41:12;;;;;;;41.10;26.55;;;;;;;20.21;67.39;94919.44;4175518;28;20130;-53
2022/05/26 01:43:33;;;;;;;42.13;24.92;;;;;;;19.98;67.95;94922.63;4174556;28;20104;-53
2022/05/26 01:45:59;;;;;;;41.15;26.63;;;;;;;19.41;70.07;94919.72;4173171;28;20057;-55
2022/05/26 01:48:16;;;;;;;41.05;25.95;;;;;;;19.41;70.29;94911.75;4174688;28;20057;-52
2022/05/26 01:50:31;;;;;;;41.65;26.00;;;;;;;19.52;69.88;94910.31;4175734;28;20060;-53
2022/05/26 01:52:46;;;;;;;40.45;25.88;;;;;;;19.65;69.63;94904.13;4174092;28;20177;-52
2022/05/26 01:54:56;;;;;;;41.75;25.08;;;;;;;19.76;69.08;94919.44;4173993;28;20049;-55
2022/05/26 01:57:12;;;;;;;41.63;25.85;;;;;;;19.88;68.71;94905.50;4175756;28;20440;-51
2022/05/26 01:59:22;;;;;;;43.10;25.20;;;;;;;19.97;68.37;94904.22;4167247;28;20122;-54
2022/05/26 02:01:27;;;;;;;37.40;25.83;;;;;;;20.03;67.97;94904.19;4156288;28;20054;-54
2022/05/26 02:03:32;;;;;;;34.75;24.20;;;;;;;20.07;67.73;94903.75;4160121;28;20053;-55
2022/05/26 02:05:40;;;;;;;41.33;24.98;;;;;;;20.11;67.45;94899.66;4162254;28;20061;-53
2022/05/26 02:07:47;;;;;;;36.92;24.95;;;;;;;20.10;67.82;94900.69;4174327;28;20164;-52
2022/05/26 02:09:50;;;;;;;36.67;24.70;;;;;;;20.13;67.71;94909.03;4178622;28;20052;-53
2022/05/26 02:12:06;;;;;;;38.42;25.73;;;;;;;20.16;67.57;94899.84;4177371;28;20053;-53
2022/05/26 02:14:13;;;;;;;39.47;25.00;;;;;;;20.16;67.29;94905.16;4177360;28;20060;-54
2022/05/26 02:16:31;;;;;;;39.42;25.05;;;;;;;20.19;67.19;94894.88;4172223;28;20049;-53
2022/05/26 02:18:46;;;;;;;35.97;23.85;;;;;;;20.21;67.05;94890.16;4161178;28;20053;-53
2022/05/26 02:21:00;;;;;;;39.08;24.52;;;;;;;20.23;67.09;94895.28;4162029;28;20061;-54
2022/05/26 02:23:02;;;;;;;;;;;;;;;20.23;67.12;94909.38;4168221;28;20097;-54
2022/05/26 02:25:10;;;;;;;36.50;23.92;;;;;;;20.15;67.20;94904.31;4178137;28;19982;-55
2022/05/26 02:27:12;;;;;;;39.33;26.23;;;;;;;20.09;67.52;94910.50;4177128;28;20079;-52
2022/05/26 02:31:34;;;;;;;38.83;26.17;;;;;;;19.82;68.94;94913.28;4177091;28;20072;-54
2022/05/26 02:33:36;;;;;;;42.20;26.70;;;;;;;19.83;68.54;94906.97;4177112;28;20061;-53
2022/05/26 02:35:41;;;;;;;37.72;25.58;;;;;;;19.84;68.51;94923.72;4178242;28;20114;-54
2022/05/26 02:37:47;;;;;;;40.70;24.98;;;;;;;19.90;68.40;94908.78;4178333;28;20106;-55
2022/05/26 02:39:49;;;;;;;41.03;25.55;;;;;;;19.94;68.30;94916.13;4178138;28;20056;-53
2022/05/26 02:41:54;;;;;;;40.75;26.23;;;;;;;19.98;68.04;94919.97;4178411;28;20436;-55
2022/05/26 02:43:56;;;;;;;40.05;26.33;;;;;;;20.02;67.81;94915.03;4178626;28;20543;-54
2022/05/26 02:46:23;;;;;;;38.10;25.13;;;;;;;20.05;67.79;94914.63;4175176;28;20448;-53
2022/05/26 02:48:43;;;;;;;39.45;25.77;;;;;;;20.03;67.83;94903.38;4177933;28;20080;-53
2022/05/26 02:51:01;;;;;;;38.47;25.55;;;;;;;19.98;67.81;94908.50;4177645;28;20482;-55
2022/05/26 02:53:26;;;;;;;40.83;26.10;;;;;;;19.93;68.03;94911.00;4177893;28;20464;-54
2022/05/26 02:55:53;;;;;;;35.13;23.98;;;;;;;19.94;68.07;94915.28;4176302;28;20045;-53
2022/05/26 02:57:59;;;;;;;39.47;25.67;;;;;;;19.96;67.86;94910.56;4176531;28;20087;-53
2022/05/26 03:00:23;;;;;;;41.13;25.05;;;;;;;20.00;67.84;94909.94;4168254;28;20469;-55
2022/05/26 03:02:38;;;;;;;43.92;26.30;;;;;;;19.96;67.86;94910.56;4161488;28;20526;-53
2022/05/26 03:04:44;;;;;;;36.83;24.88;;;;;;;19.87;68.32;94915.31;4160936;28;20088;-54
2022/05/26 03:06:55;;;;;;;41.53;27.58;;;;;;;19.84;68.35;94924.53;4160181;28;20061;-52
2022/05/26 03:08:58;;;;;;;48.97;26.17;;;;;;;19.79;68.62;94923.53;4162865;28;20506;-53
2022/05/26 03:11:12;;;;;;;44.17;25.38;;;;;;;19.77;68.78;94923.75;4169701;28;20056;-55
2022/05/26 03:13:14;;;;;;;47.83;26.08;;;;;;;19.48;69.72;94937.50;4161369;28;20549;-53
2022/05/26 03:15:16;;;;;;;40.95;27.00;;;;;;;19.42;70.03;94932.00;4158951;28;20816;-55
2022/05/26 03:17:18;;;;;;;44.47;26.55;;;;;;;19.39;70.35;94940.38;4161319;28;20437;-53
2022/05/26 03:19:20;;;;;;;47.75;27.25;;;;;;;19.34;70.54;94939.38;4161178;28;20455;-50
2022/05/26 03:21:21;;;;;;;38.20;27.17;;;;;;;19.34;70.70;94948.16;4159791;28;20049;-54
2022/05/26 03:23:23;;;;;;;42.42;26.08;;;;;;;19.37;70.59;94944.28;4161268;28;20060;-54
2022/05/26 03:25:25;;;;;;;40.83;27.83;;;;;;;19.47;70.10;94943.81;4160913;28;20429;-53
2022/05/26 03:27:26;;;;;;;42.13;28.58;;;;;;;19.59;69.95;94956.25;4161511;28;21133;-55
2022/05/26 03:29:28;;;;;;;40.17;26.33;;;;;;;19.73;69.37;94949.13;4160599;28;20045;-54
2022/05/26 03:31:30;;;;;;;42.17;26.58;;;;;;;19.84;69.05;94950.31;4168618;28;20061;-54
2022/05/26 03:40:46;;;;;;;39.50;27.50;;;;;;;19.94;68.61;94945.34;4177207;28;20079;-52
2022/05/26 03:40:57;;;;;;;45.33;26.80;;;;;;;20.21;67.37;94950.53;4175278;28;20458;-53
2022/05/26 03:43:00;;;;;;;35.42;25.58;;;;;;;20.24;67.32;94958.91;4177384;28;20151;-53
2022/05/26 03:45:03;;;;;;;38.65;26.65;;;;;;;20.28;67.22;94956.63;4176237;28;20063;-53
2022/05/26 03:47:05;;;;;;;39.07;25.57;;;;;;;20.30;66.97;94954.56;4176052;28;20454;-56
2022/05/26 03:49:07;;;;;;;41.45;26.85;;;;;;;20.33;66.96;94956.81;4177519;28;20363;-52
2022/05/26 03:51:09;;;;;;;37.63;26.67;;;;;;;20.33;66.76;94961.34;4177209;28;20049;-54
2022/05/26 03:53:10;;;;;;;41.92;27.10;;;;;;;20.37;66.93;94965.19;4177449;28;20052;-55
2022/05/26 03:55:12;;;;;;;43.70;27.17;;;;;;;20.41;66.68;94969.88;4176838;28;20065;-52
2022/05/26 03:57:14;;;;;;;41.45;25.55;;;;;;;20.48;66.50;94977.81;4176070;28;20099;-54
2022/05/26 03:59:15;;;;;;;41.67;26.67;;;;;;;20.49;66.63;94984.78;4160613;28;20057;-54
2022/05/26 04:01:17;;;;;;;46.60;27.40;;;;;;;20.45;66.55;94981.72;4160598;28;20092;-55
2022/05/26 04:03:19;;;;;;;61.35;35.95;;;;;;;20.46;66.51;94986.00;4160110;28;20299;-56
2022/05/26 04:05:21;;;;;;;55.33;37.55;;;;;;;20.44;66.43;94988.06;4160544;28;20490;-56
2022/05/26 04:07:22;;;;;;;51.97;34.35;;;;;;;20.46;66.29;94986.00;4165573;28;20045;-54
2022/05/26 04:09:24;;;;;;;49.88;33.17;;;;;;;20.49;66.28;94997.25;4167402;28;20053;-54
2022/05/26 04:11:26;;;;;;;51.38;31.58;;;;;;;20.50;66.12;94986.41;4160258;28;20057;-52
2022/05/26 04:13:30;;;;;;;57.40;34.40;;;;;;;20.51;66.17;94987.22;4160681;28;20061;-55
2022/05/26 04:15:32;;;;;;;47.60;31.92;;;;;;;20.53;66.16;94985.97;4159110;28;20095;-53
2022/05/26 04:17:36;;;;;;;48.10;32.10;;;;;;;20.58;66.10;94988.03;4158733;28;20099;-54
2022/05/26 04:19:41;;;;;;;45.47;29.65;;;;;;;20.61;65.80;94992.94;4160167;28;20057;-57
2022/05/26 04:24:03;;;;;;;55.85;34.20;;;;;;;20.66;65.56;94991.25;4159206;28;20068;-53
2022/05/26 04:26:06;;;;;;;45.72;29.55;;;;;;;20.68;65.75;94992.88;4159687;28;20115;-57
2022/05/26 04:28:08;;;;;;;48.22;32.80;;;;;;;20.72;65.71;94994.09;4160199;28;20053;-52
2022/05/26 04:30:11;;;;;;;49.92;31.38;;;;;;;20.73;65.33;94996.53;4158520;28;20054;-51
2022/05/26 04:32:12;;;;;;;47.13;33.40;;;;;;;20.78;65.28;94998.53;4174182;28;20114;-53
2022/05/26 04:34:14;;;;;;;48.42;30.20;;;;;;;20.81;65.42;95004.25;4176162;28;20468;-53
2022/05/26 04:36:16;;;;;;;45.25;30.23;;;;;;;20.88;65.07;94996.22;4176377;28;20087;-54
2022/05/26 04:38:19;;;;;;;50.85;30.70;;;;;;;20.92;64.99;95005.41;4176336;28;20053;-52
2022/05/26 04:40:21;;;;;;;52.90;30.23;;;;;;;20.93;64.70;95006.22;4176309;28;20466;-52
2022/05/26 04:42:23;;;;;;;52.28;32.20;;;;;;;20.82;65.22;95005.91;4176743;28;20107;-56
2022/05/26 04:44:29;;;;;;;51.88;31.17;;;;;;;20.67;65.41;95000.03;4176317;28;20049;-53
2022/05/26 04:46:31;;;;;;;49.28;29.80;;;;;;;20.63;65.95;94994.34;4164840;28;20057;-52
2022/05/26 04:48:32;;;;;;;42.35;27.00;;;;;;;20.70;65.74;95004.13;4159825;28;20262;-58
2022/05/26 04:50:34;;;;;;;43.00;24.98;;;;;;;20.78;64.93;95004.69;4159886;28;20411;-55
2022/05/26 04:52:36;;;;;;;46.17;25.13;;;;;;;20.66;64.90;94998.41;4159834;28;20123;-52
2022/05/26 04:54:38;;;;;;;45.78;25.45;;;;;;;20.71;65.22;94998.59;4159269;28;20115;-54
2022/05/26 04:56:39;;;;;;;36.13;25.10;;;;;;;20.81;64.66;95006.09;4159692;28;20108;-56
2022/05/26 04:58:41;;;;;;;36.17;24.23;;;;;;;20.79;64.08;95002.84;4159804;28;20129;-56
2022/05/26 05:00:49;;;;;;;37.63;23.75;;;;;;;20.91;64.21;95008.28;4157540;28;20087;-56
2022/05/26 05:02:53;;;;;;;40.90;24.13;;;;;;;21.02;64.08;95007.59;4167600;28;20115;-54
2022/05/26 05:04:55;;;;;;;37.08;24.02;;;;;;;21.13;63.40;95004.22;4175937;28;20489;-56
2022/05/26 05:06:57;;;;;;;37.00;23.15;;;;;;;21.28;63.26;94994.06;4176103;28;20096;-55
2022/05/26 05:08:59;;;;;;;34.35;22.80;;;;;;;21.46;62.22;95005.81;4174600;28;20103;-58
2022/05/26 05:11:00;;;;;;;34.78;22.42;;;;;;;21.56;61.39;95011.47;4175409;28;20457;-54
2022/05/26 05:13:02;;;;;;;42.45;22.45;;;;;;;21.64;60.66;95003.19;4175970;28;20052;-54
2022/05/26 05:15:09;;;;;;;32.45;21.85;;;;;;;21.77;60.87;95006.75;4174127;28;20060;-55
2022/05/26 05:17:11;;;;;;;34.15;22.27;;;;;;;21.79;60.65;95012.69;4175944;28;20056;-57
2022/05/26 05:19:15;;;;;;;36.42;22.70;;;;;;;21.81;60.57;95010.59;4170679;28;20041;-52
2022/05/26 05:21:22;;;;;;;38.38;23.48;;;;;;;21.87;60.61;95015.06;4159515;28;20049;-55
2022/05/26 05:23:24;;;;;;;33.83;22.45;;;;;;;21.93;60.47;95008.84;4158099;28;20057;-53
2022/05/26 05:25:31;;;;;;;41.10;22.48;;;;;;;22.03;60.66;95022.47;4159125;28;20156;-54
2022/05/26 05:27:39;;;;;;;47.90;24.38;;;;;;;22.11;60.48;95023.22;4159534;28;20547;-55
2022/05/26 05:29:41;;;;;;;40.63;23.38;;;;;;;22.14;59.79;95020.91;4157677;28;20487;-51
2022/05/26 05:31:48;;;;;;;38.70;22.95;;;;;;;22.09;60.02;95028.75;4168319;28;20044;-53
2022/05/26 05:33:52;;;;;;;35.33;23.88;;;;;;;22.08;59.66;95024.47;4175802;28;20079;-55
2022/05/26 05:36:17;;;;;;;38.50;24.63;;;;;;;21.87;59.98;95031.88;4174473;28;20068;-56
2022/05/26 05:38:19;;;;;;;40.97;24.30;;;;;;;21.85;60.21;95031.31;4175190;28;20460;-54
2022/05/26 05:40:21;;;;;;;43.33;23.00;;;;;;;21.81;60.51;95030.09;4175540;28;20107;-54
2022/05/26 05:42:23;;;;;;;35.03;23.50;;;;;;;21.89;60.08;95040.47;4174468;28;20056;-54
2022/05/26 05:44:26;;;;;;;42.80;23.17;;;;;;;21.86;60.82;95046.25;4175694;28;20436;-55
2022/05/26 05:46:34;;;;;;;44.13;23.10;;;;;;;21.78;60.50;95048.38;4174770;28;20049;-54
2022/05/26 05:48:36;;;;;;;39.60;23.55;;;;;;;21.72;60.01;95038.59;4175730;28;20112;-55
2022/05/26 05:50:38;;;;;;;38.53;23.15;;;;;;;21.66;60.42;95046.44;4175338;28;20535;-54
2022/05/26 05:52:39;;;;;;;40.38;24.60;;;;;;;21.64;60.62;95055.72;4175156;28;20358;-50
2022/05/26 05:54:41;;;;;;;37.75;23.05;;;;;;;21.55;60.67;95055.16;4174902;28;20057;-52
2022/05/26 05:56:43;;;;;;;44.30;24.02;;;;;;;21.30;61.70;95062.31;4175296;28;20454;-53
2022/05/26 05:58:44;;;;;;;40.83;24.90;;;;;;;21.38;61.84;95062.03;4161333;28;20366;-55
2022/05/26 06:00:46;;;;;;;44.30;23.50;;;;;;;21.52;61.80;95050.25;4159513;28;20120;-56
2022/05/26 06:02:48;;;;;;;48.17;24.48;;;;;;;21.67;61.49;95056.06;4160638;28;20084;-53
2022/05/26 06:04:50;;;;;;;40.28;24.85;;;;;;;21.79;61.62;95058.84;4160476;28;20506;-54
2022/05/26 06:06:52;;;;;;;41.40;24.85;;;;;;;21.62;61.60;95063.91;4159141;28;20123;-55
2022/05/26 06:08:53;;;;;;;45.15;27.20;;;;;;;21.42;62.42;95069.44;4173847;28;20060;-52
2022/05/26 06:10:55;;;;;;;49.78;26.15;;;;;;;21.50;62.41;95075.50;4174432;28;20049;-54
2022/05/26 06:12:57;;;;;;;40.78;25.23;;;;;;;21.56;61.90;95066.66;4175222;28;20052;-56
2022/05/26 06:14:59;;;;;;;45.83;24.58;;;;;;;21.47;62.54;95076.78;4173942;28;20044;-55
2022/05/26 06:17:00;;;;;;;40.92;24.52;;;;;;;21.60;62.78;95068.66;4175312;28;20467;-55
2022/05/26 06:19:02;;;;;;;52.35;24.08;;;;;;;21.80;62.08;95078.31;4175675;28;20053;-54
2022/05/26 06:21:06;;;;;;;42.65;24.75;;;;;;;21.99;61.82;95071.97;4175172;28;20116;-55
2022/05/26 06:23:07;;;;;;;38.25;23.70;;;;;;;22.15;61.10;95069.75;4174016;28;20425;-54
2022/05/26 06:25:11;;;;;;;37.92;22.50;;;;;;;22.27;59.93;95078.69;4175150;28;20744;-54
2022/05/26 06:29:49;;;;;;;35.20;20.83;;;;;;;22.47;59.06;95083.78;4174204;28;20490;-56
2022/05/26 06:38:53;;;;;;;36.60;22.42;;;;;;;22.56;58.12;95090.44;4174979;28;20053;-53
2022/05/26 06:40:54;;;;;;;44.00;21.08;;;;;;;22.54;57.97;95097.88;4174952;28;20051;-53
2022/05/26 06:42:56;;;;;;;38.35;21.25;;;;;;;22.36;58.67;95103.22;4175429;28;20049;-54
2022/05/26 06:44:58;;;;;;;35.10;20.17;;;;;;;22.23;59.12;95094.31;4173560;28;20053;-51
2022/05/26 06:47:00;;;;;;;30.42;19.45;;;;;;;22.49;58.64;95089.72;4160606;28;20452;-55
2022/05/26 06:49:01;;;;;;;32.70;18.77;;;;;;;22.75;57.72;95093.09;4159962;28;20103;-56
2022/05/26 06:51:06;;;;;;;31.15;18.00;;;;;;;22.86;57.33;95087.81;4161427;28;20116;-56
2022/05/26 06:53:08;;;;;;;34.10;18.95;;;;;;;22.79;56.31;95089.75;4161951;28;20061;-52
2022/05/26 06:55:10;;;;;;;27.85;16.30;;;;;;;22.67;56.02;95096.88;4159613;28;20528;-54
2022/05/26 06:57:13;;;;;;;28.52;18.63;;;;;;;22.56;57.07;95101.13;4161378;28;20057;-52
2022/05/26 06:59:14;;;;;;;27.90;16.55;;;;;;;22.54;55.87;95097.06;4161500;28;20111;-55
2022/05/26 07:01:16;;;;;;;31.83;14.75;;;;;;;22.54;55.80;95097.06;4159797;28;20453;-46
2022/05/26 07:03:18;;;;;;;26.23;14.00;;;;;;;22.74;56.24;95105.66;4165626;28;20055;-51
2022/05/26 07:05:20;;;;;;;33.10;15.70;;;;;;;22.80;55.73;95099.41;4165337;28;20045;-51
2022/05/26 07:07:22;;;;;;;26.95;15.02;;;;;;;23.00;55.42;95107.19;4165748;28;20053;-51
2022/05/26 07:09:24;;;;;;;21.65;13.40;;;;;;;23.03;54.53;95111.25;4177753;28;20049;-49
2022/05/26 07:11:26;;;;;;;27.52;13.32;;;;;;;22.77;54.30;95107.06;4177381;28;20494;-51
2022/05/26 07:13:29;;;;;;;22.63;13.02;;;;;;;22.94;54.64;95112.59;4178029;28;20053;-51
2022/05/26 07:15:33;;;;;;;31.30;13.63;;;;;;;23.21;54.17;95108.53;4176390;28;20129;-52
2022/05/26 07:17:36;;;;;;;20.45;11.05;;;;;;;23.36;52.04;95105.44;4177974;28;20166;-53
2022/05/26 07:19:38;;;;;;;18.88;11.75;;;;;;;23.33;52.63;95103.22;4169045;28;20108;-53
2022/05/26 07:21:43;;;;;;;23.38;12.20;;;;;;;23.54;52.57;95107.22;4159761;28;20142;-51
2022/05/26 07:23:50;;;;;;;22.88;10.88;;;;;;;23.77;51.23;95111.81;4161163;28;20061;-54
2022/05/26 07:25:52;;;;;;;21.50;8.05;;;;;;;23.94;48.54;95095.06;4160695;28;20077;-51
2022/05/26 07:27:54;;;;;;;20.67;7.00;;;;;;;24.08;47.06;95099.94;4160938;28;20053;-52
2022/05/26 07:29:55;;;;;;;14.27;5.95;;;;;;;24.30;45.96;95102.03;4159449;28;21084;-53
2022/05/26 07:31:58;;;;;;;15.18;5.88;;;;;;;24.49;45.13;95098.16;4173542;28;20124;-52
2022/05/26 07:34:01;;;;;;;12.50;6.43;;;;;;;24.67;44.49;95096.38;4177154;28;20084;-53
2022/05/26 07:36:03;;;;;;;18.30;5.53;;;;;;;24.73;43.33;95095.44;4177608;28;20107;-49
2022/05/26 07:42:45;;;;;;;14.05;4.60;;;;;;;25.19;40.79;95096.31;4177603;28;20083;-54
2022/05/26 07:44:49;;;;;;;9.63;4.07;;;;;;;25.17;41.19;95102.94;4174495;28;20543;-56
2022/05/26 07:46:50;;;;;;;11.98;4.63;;;;;;;25.20;40.76;95102.50;4176183;28;20153;-55
2022/05/26 07:48:52;;;;;;;14.43;4.82;;;;;;;25.21;41.19;95090.72;4175880;28;20055;-57
2022/05/26 07:50:54;;;;;;;13.77;4.55;;;;;;;25.36;41.06;95098.22;4177162;28;20121;-52
2022/05/26 07:52:56;;;;;;;15.95;4.30;;;;;;;25.38;40.73;95102.28;4177297;28;20060;-55
2022/05/26 07:54:57;;;;;;;12.30;4.38;;;;;;;25.31;41.03;95102.44;4171904;28;20107;-55
2022/05/26 07:56:59;;;;;;;11.43;3.78;;;;;;;25.46;40.88;95103.78;4161022;28;20498;-58
2022/05/26 07:59:01;;;;;;;9.63;4.18;;;;;;;25.61;40.01;95106.69;4160800;28;20061;-56
2022/05/26 08:01:03;;;;;;;15.70;4.43;;;;;;;25.52;39.57;95110.84;4158650;28;20061;-60
2022/05/26 08:03:05;;;;;;;10.50;3.90;;;;;;;25.60;39.71;95110.47;4160896;28;20129;-56
2022/05/26 08:05:09;;;;;;;9.27;3.65;;;;;;;25.66;39.26;95109.47;4165143;28;20059;-55
2022/05/26 08:07:11;;;;;;;12.55;3.58;;;;;;;25.68;38.97;95110.06;4167603;28;20052;-52
2022/05/26 08:09:17;;;;;;;10.02;3.95;;;;;;;25.57;39.12;95116.28;4176947;28;20462;-57
2022/05/26 08:11:19;;;;;;;8.63;3.70;;;;;;;25.68;39.02;95107.38;4176541;28;20168;-55
2022/05/26 08:13:21;;;;;;;6.18;3.63;;;;;;;25.75;39.22;95118.75;4177246;28;20060;-54
2022/05/26 08:15:24;;;;;;;8.75;3.60;;;;;;;25.78;39.26;95119.31;4175342;28;20198;-54
2022/05/26 08:17:25;;;;;;;12.10;3.60;;;;;;;25.94;39.03;95116.66;4176680;28;20061;-57
2022/05/26 08:19:28;;;;;;;10.13;4.72;;;;;;;26.08;39.19;95114.44;4176573;28;20421;-54
2022/05/26 08:21:30;;;;;;;10.98;3.83;;;;;;;25.77;39.42;95113.16;4176723;28;20053;-52
2022/05/26 08:23:32;;;;;;;11.25;4.05;;;;;;;25.87;39.28;95117.84;4176513;28;20053;-54
2022/05/26 08:25:34;;;;;;;16.35;3.70;;;;;;;25.99;39.39;95109.75;4176421;28;20048;-54
2022/05/26 08:27:36;;;;;;;11.27;3.80;;;;;;;26.19;39.64;95109.22;4176684;28;20053;-53
2022/05/26 08:29:39;;;;;;;8.68;3.88;;;;;;;26.19;39.66;95114.59;4174998;28;20130;-52
2022/05/26 08:31:41;;;;;;;8.95;4.47;;;;;;;26.17;39.27;95128.25;4176297;28;20052;-52
2022/05/26 08:33:43;;;;;;;13.07;4.72;;;;;;;26.21;39.66;95125.91;4176519;28;20053;-51
2022/05/26 08:35:44;;;;;;;12.45;3.90;;;;;;;25.94;39.91;95129.25;4176532;28;20052;-53
2022/05/26 08:37:46;;;;;;;8.23;3.75;;;;;;;26.19;40.40;95133.41;4176504;28;20052;-55
2022/05/26 08:39:48;;;;;;;8.82;3.97;;;;;;;26.26;39.80;95118.72;4176256;28;20069;-55
2022/05/26 08:41:52;;;;;;;9.27;4.10;;;;;;;26.45;39.25;95121.13;4170803;28;20053;-54
2022/05/26 08:44:08;;;;;;;10.55;5.15;;;;;;;26.41;39.06;95139.59;4168765;28;20645;-54
2022/05/26 08:46:13;;;;;;;13.32;4.15;;;;;;;26.26;39.21;95124.09;4156976;28;20079;-56
2022/05/26 08:48:32;;;;;;;8.95;4.07;;;;;;;26.21;39.55;95137.44;4160354;28;20055;-52
2022/05/26 08:50:34;;;;;;;10.40;3.40;;;;;;;26.22;38.94;95133.72;4158159;28;20088;-54
2022/05/26 08:52:45;;;;;;;8.60;3.75;;;;;;;26.03;39.20;95133.16;4160036;28;20363;-55
2022/05/26 08:55:06;;;;;;;8.98;3.80;;;;;;;25.88;39.65;95132.91;4159452;28;20077;-58
2022/05/26 08:57:11;;;;;;;12.38;4.25;;;;;;;25.93;40.36;95128.44;4167629;28;20053;-56
2022/05/26 08:59:15;;;;;;;7.65;3.95;;;;;;;25.99;40.86;95132.03;4176422;28;20122;-56
2022/05/26 09:01:20;;;;;;;10.77;4.60;;;;;;;26.06;40.67;95121.13;4175001;28;20053;-54
2022/05/26 09:03:24;;;;;;;12.50;4.50;;;;;;;26.17;40.20;95133.63;4174720;28;20071;-53
2022/05/26 09:05:31;;;;;;;8.23;4.00;;;;;;;26.29;40.62;95138.91;4169749;28;20065;-52
2022/05/26 09:14:44;;;;;;;7.88;3.65;;;;;;;26.56;38.44;95130.97;4174833;28;20122;-53
2022/05/26 09:16:46;;;;;;;11.07;4.13;;;;;;;26.68;37.37;95118.25;4176135;28;20115;-58
2022/05/26 09:19:06;;;;;;;7.68;4.05;;;;;;;26.21;38.40;95126.72;4174374;28;20281;-57
2022/05/26 09:21:17;;;;;;;8.15;4.20;;;;;;;26.28;38.98;95124.66;4159479;28;20091;-56
2022/05/26 09:23:24;;;;;;;14.75;4.13;;;;;;;26.23;39.03;95137.22;4159568;28;20049;-55
2022/05/26 09:25:55;;;;;;;10.85;4.03;;;;;;;26.53;38.73;95123.41;4159318;28;20061;-58
2022/05/26 09:27:57;;;;;;;11.13;4.07;;;;;;;26.66;38.60;95125.75;4159615;28;20410;-56
2022/05/26 09:30:16;;;;;;;15.23;4.97;;;;;;;26.62;37.95;95129.19;4157845;28;20076;-53
2022/05/26 09:32:18;;;;;;;12.25;4.25;;;;;;;26.79;37.29;95129.13;4174709;28;20060;-55
2022/05/26 09:34:36;;;;;;;10.00;4.03;;;;;;;26.98;36.66;95124.25;4175962;28;20080;-52
2022/05/26 09:36:53;;;;;;;14.93;7.30;;;;;;;26.70;35.96;95136.81;4174526;28;20433;-54
2022/05/26 09:38:55;;;;;;;11.45;4.20;;;;;;;26.89;36.25;95129.25;4174149;28;20493;-53
2022/05/26 09:41:05;;;;;;;7.78;3.97;;;;;;;26.90;37.00;95118.22;4175250;28;20045;-53
2022/05/26 09:43:26;;;;;;;11.10;3.33;;;;;;;27.16;36.22;95129.28;4175699;28;20138;-54
2022/05/26 09:45:35;;;;;;;9.07;3.72;;;;;;;27.20;35.91;95122.31;4174262;28;20060;-57
2022/05/26 09:47:45;;;;;;;8.65;3.40;;;;;;;27.41;35.79;95119.88;4175670;28;20628;-55
2022/05/26 09:49:50;;;;;;;8.43;3.83;;;;;;;27.44;36.60;95113.97;4175428;28;20132;-52
2022/05/26 09:52:03;;;;;;;9.13;3.38;;;;;;;27.37;35.31;95123.06;4174015;28;20079;-55
2022/05/26 09:54:19;;;;;;;;;;;;;;;27.54;35.02;95132.91;4174823;28;20065;-55
2022/05/26 09:56:33;;;;;;;10.32;3.33;;;;;;;27.57;34.06;95125.13;4175416;28;19987;-53
2022/05/26 09:58:41;;;;;;;9.07;2.97;;;;;;;27.85;33.83;95117.03;4161796;28;20148;-56
2022/05/26 10:00:45;;;;;;;8.15;3.25;;;;;;;27.88;34.44;95108.47;4157751;28;20048;-56
2022/05/26 10:02:49;;;;;;;9.95;3.80;;;;;;;27.95;34.12;95120.63;4159107;28;20164;-57
2022/05/26 10:04:51;;;;;;;8.80;4.32;;;;;;;27.74;34.02;95110.75;4160302;28;20494;-54
2022/05/26 10:07:03;;;;;;;9.40;3.78;;;;;;;27.67;33.56;95112.84;4163438;28;20063;-54
2022/05/26 10:09:24;;;;;;;7.28;3.80;;;;;;;27.74;33.72;95114.25;4156928;28;20099;-53
2022/05/26 10:11:47;;;;;;;6.07;3.20;;;;;;;27.78;32.72;95099.19;4158821;28;20099;-57
2022/05/26 10:13:57;;;;;;;5.53;2.40;;;;;;;27.94;30.71;95105.56;4159325;28;20137;-55